^^
Datos históricos de la estación: Murcia-Puente Tocinos
Diario Informe para Abril 7, 2019 Unidades:  Ambas    Ingés   Métrico
Diario Semanal Mensual Anual
  Máxima: Mínima: Promedio:
Temperatura: 61.3 °F /  16.3 °C 39.6 °F /  4.2 °C 49.1 °F /  9.5 °C
Punto de rocio: 47.5 °F /  8.6 °C 27.9 °F /  -2.3 °C 34.7 °F /  1.5 °C
Humedad: 83.3% 30.3% 60%
Velocidad viento: 7.4mph /  11.9km/h - 3.6mph /  5.8km/h
Racha viento: 14mph /  22.5km/h - -
Viento- - SSE
Presión: 30.4 in /  1028.4 hPa 30.3 in /  1025.3 hPa -
Precipitación: 0 in /  0.0 mm    
 
 
Tabla de datos para Abril 7, 2019
Hora Temperatura Punto de rocio Presión Viento Velocidad viento Racha viento Humedad Intensidad lluvia(por hora) Nubes
00:04 46 °F /  7.8 °C 33.4 °F /  0.8 °C 30.3in /  1026.0hPa Sur 2mph /  3.2km/h 5.2mph /  8.4km/h 61.1% 0in /  0.0mm
00:09 45.9 °F /  7.7 °C 33.6 °F /  0.9 °C 30.3in /  1026.0hPa Sur 3mph /  4.9km/h 5mph /  8km/h 62% 0in /  0.0mm
00:14 45.9 °F /  7.7 °C 33.6 °F /  0.9 °C 30.3in /  1026.0hPa Sur 3.6mph /  5.8km/h 5mph /  8km/h 62% 0in /  0.0mm
00:19 45.9 °F /  7.7 °C 33.6 °F /  0.9 °C 30.3in /  1026.0hPa Sur 2.5mph /  4.1km/h 3mph /  4.8km/h 62% 0in /  0.0mm
00:24 45.9 °F /  7.7 °C 33.6 °F /  0.9 °C 30.3in /  1026.0hPa Sur 2mph /  3.2km/h 3.1mph /  5km/h 62% 0in /  0.0mm
00:29 45.9 °F /  7.7 °C 33.3 °F /  0.7 °C 30.3in /  1026.0hPa Sur 1.6mph /  2.6km/h 4.3mph /  6.9km/h 61.4% 0in /  0.0mm
00:34 45.7 °F /  7.6 °C 32.7 °F /  0.4 °C 30.3in /  1026.2hPa Oeste 1.4mph /  2.2km/h 5mph /  8km/h 60% 0in /  0.0mm
00:39 45.5 °F /  7.5 °C 32 °F /  0 °C 30.3in /  1026.2hPa ONO 2.4mph /  3.8km/h 5mph /  8km/h 59% 0in /  0.0mm
00:44 45.3 °F /  7.4 °C 31.8 °F /  -0.1 °C 30.3in /  1026.2hPa OSO 2.9mph /  4.6km/h 5.2mph /  8.4km/h 59% 0in /  0.0mm
00:49 45.3 °F /  7.4 °C 31.8 °F /  -0.1 °C 30.3in /  1026.2hPa OSO 3mph /  4.9km/h 5.9mph /  9.5km/h 59% 0in /  0.0mm
00:54 45.5 °F /  7.5 °C 31.8 °F /  -0.1 °C 30.3in /  1026.0hPa OSO 3.1mph /  5km/h 6mph /  9.7km/h 58.6% 0in /  0.0mm
00:59 45.7 °F /  7.6 °C 31.5 °F /  -0.3 °C 30.3in /  1026.0hPa OSO 3mph /  4.8km/h 5mph /  8km/h 57.6% 0in /  0.0mm
01:04 45.9 °F /  7.7 °C 31.5 °F /  -0.3 °C 30.3in /  1026.0hPa OSO 2.9mph /  4.6km/h 5mph /  8km/h 57% 0in /  0.0mm
01:09 46 °F /  7.8 °C 31.8 °F /  -0.1 °C 30.3in /  1026.0hPa OSO 3mph /  4.9km/h 5mph /  8km/h 57.5% 0in /  0.0mm
01:14 46 °F /  7.8 °C 32.2 °F /  0.1 °C 30.3in /  1026.0hPa OSO 3.1mph /  5km/h 5mph /  8km/h 58.3% 0in /  0.0mm
01:19 45.9 °F /  7.7 °C 32.5 °F /  0.3 °C 30.3in /  1026.0hPa SO 2.7mph /  4.3km/h 5.2mph /  8.4km/h 59.5% 0in /  0.0mm
01:24 45.3 °F /  7.4 °C 32.5 °F /  0.3 °C 30.3in /  1026.0hPa Sur 2.4mph /  3.9km/h 5.4mph /  8.7km/h 60.7% 0in /  0.0mm
01:29 45 °F /  7.2 °C 32.7 °F /  0.4 °C 30.3in /  1026.0hPa Sur 2.7mph /  4.4km/h 5mph /  8km/h 61.8% 0in /  0.0mm
01:34 44.8 °F /  7.1 °C 32.7 °F /  0.4 °C 30.3in /  1026.0hPa Sur 2.9mph /  4.7km/h 3.6mph /  5.8km/h 62.6% 0in /  0.0mm
01:39 44.4 °F /  6.9 °C 32.4 °F /  0.2 °C 30.3in /  1025.9hPa Sur 2.5mph /  4.1km/h 4mph /  6.4km/h 62.4% 0in /  0.0mm
01:44 44.4 °F /  6.9 °C 32.2 °F /  0.1 °C 30.3in /  1025.9hPa Sur 2.4mph /  3.9km/h 4.6mph /  7.4km/h 61.7% 0in /  0.0mm
01:49 44.8 °F /  7.1 °C 32.5 °F /  0.3 °C 30.3in /  1026.1hPa Sur 2.1mph /  3.4km/h 5mph /  8km/h 62% 0in /  0.0mm
01:54 44.8 °F /  7.1 °C 32.7 °F /  0.4 °C 30.3in /  1026.1hPa Sur 2mph /  3.2km/h 5mph /  8km/h 62.3% 0in /  0.0mm
01:59 44.8 °F /  7.1 °C 32.9 °F /  0.5 °C 30.3in /  1026.1hPa Sur 2.3mph /  3.7km/h 5.4mph /  8.7km/h 63% 0in /  0.0mm
02:04 44.2 °F /  6.8 °C 32.5 °F /  0.3 °C 30.3in /  1026.1hPa Sur 2.4mph /  3.9km/h 6mph /  9.7km/h 63% 0in /  0.0mm
02:09 44.1 °F /  6.7 °C 32.5 °F /  0.3 °C 30.3in /  1026.0hPa Sur 3.2mph /  5.1km/h 6mph /  9.7km/h 63.9% 0in /  0.0mm
02:14 43.7 °F /  6.5 °C 32.4 °F /  0.2 °C 30.3in /  1026.0hPa SSE 3.6mph /  5.8km/h 5.2mph /  8.4km/h 64% 0in /  0.0mm
02:19 43.3 °F /  6.3 °C 32.4 °F /  0.2 °C 30.3in /  1026.1hPa Sur 3.6mph /  5.8km/h 5mph /  8km/h 64.9% 0in /  0.0mm
02:24 43.2 °F /  6.2 °C 32.2 °F /  0.1 °C 30.3in /  1026.1hPa Sur 3.6mph /  5.8km/h 5mph /  8km/h 65% 0in /  0.0mm
02:29 43 °F /  6.1 °C 32.2 °F /  0.1 °C 30.3in /  1026.1hPa SSE 3.6mph /  5.8km/h 5.9mph /  9.5km/h 65.6% 0in /  0.0mm
02:34 43 °F /  6.1 °C 32.4 °F /  0.2 °C 30.3in /  1026.2hPa SSE 3.6mph /  5.8km/h 6mph /  9.7km/h 66% 0in /  0.0mm
02:39 42.8 °F /  6 °C 32.2 °F /  0.1 °C 30.3in /  1026.2hPa SE 3.2mph /  5.1km/h 5mph /  8km/h 66% 0in /  0.0mm
02:44 42.6 °F /  5.9 °C 32 °F /  0 °C 30.3in /  1026.2hPa SE 2.9mph /  4.7km/h 5.2mph /  8.4km/h 66% 0in /  0.0mm
02:49 42.3 °F /  5.7 °C 31.6 °F /  -0.2 °C 30.3in /  1026.4hPa SE 3mph /  4.9km/h 5.2mph /  8.4km/h 66% 0in /  0.0mm
02:54 42.1 °F /  5.6 °C 31.5 °F /  -0.3 °C 30.3in /  1026.4hPa SSE 3.1mph /  5km/h 5mph /  8km/h 65.9% 0in /  0.0mm
02:59 42.3 °F /  5.7 °C 31.3 °F /  -0.4 °C 30.3in /  1026.4hPa Sur 3.1mph /  5km/h 5.8mph /  9.3km/h 65% 0in /  0.0mm
03:04 42.4 °F /  5.8 °C 31.3 °F /  -0.4 °C 30.3in /  1026.4hPa Sur 3.1mph /  5km/h 6mph /  9.7km/h 64% 0in /  0.0mm
03:09 42.8 °F /  6 °C 31.3 °F /  -0.4 °C 30.3in /  1026.4hPa Sur 3.9mph /  6.2km/h 6mph /  9.7km/h 63.3% 0in /  0.0mm
03:14 42.8 °F /  6 °C 31.1 °F /  -0.5 °C 30.3in /  1026.4hPa Sur 4.3mph /  6.9km/h 6.2mph /  10km/h 62.9% 0in /  0.0mm
03:19 42.8 °F /  6 °C 30.9 °F /  -0.6 °C 30.3in /  1026.5hPa SSE 4.1mph /  6.6km/h 6mph /  9.7km/h 62.9% 0in /  0.0mm
03:24 42.6 °F /  5.9 °C 30.9 °F /  -0.6 °C 30.3in /  1026.5hPa SSE 4mph /  6.5km/h 6mph /  9.7km/h 63% 0in /  0.0mm
03:29 42.4 °F /  5.8 °C 30.9 °F /  -0.6 °C 30.3in /  1026.5hPa SSE 3.8mph /  6.1km/h 5mph /  8km/h 63.7% 0in /  0.0mm
03:34 42.4 °F /  5.8 °C 30.7 °F /  -0.7 °C 30.3in /  1026.6hPa Sur 3.6mph /  5.8km/h 5.2mph /  8.4km/h 63.2% 0in /  0.0mm
03:39 42.6 °F /  5.9 °C 30.9 °F /  -0.6 °C 30.3in /  1026.6hPa SSO 3.6mph /  5.8km/h 5.9mph /  9.5km/h 63% 0in /  0.0mm
03:44 43 °F /  6.1 °C 31.1 °F /  -0.5 °C 30.3in /  1026.6hPa SSO 3.6mph /  5.8km/h 6mph /  9.7km/h 63% 0in /  0.0mm
03:49 43.2 °F /  6.2 °C 31.1 °F /  -0.5 °C 30.3in /  1026.6hPa SSO 3.6mph /  5.8km/h 5mph /  8km/h 62.4% 0in /  0.0mm
03:54 43.3 °F /  6.3 °C 30.9 °F /  -0.6 °C 30.3in /  1026.5hPa SSO 3.6mph /  5.8km/h 5mph /  8km/h 61.5% 0in /  0.0mm
03:59 43.5 °F /  6.4 °C 30.9 °F /  -0.6 °C 30.3in /  1026.5hPa SO 3.2mph /  5.2km/h 5.9mph /  9.5km/h 60.7% 0in /  0.0mm
04:04 43.9 °F /  6.6 °C 30.4 °F /  -0.9 °C 30.3in /  1026.5hPa SO 3.1mph /  5km/h 6mph /  9.7km/h 58.7% 0in /  0.0mm
04:09 44.1 °F /  6.7 °C 30.6 °F /  -0.8 °C 30.3in /  1026.5hPa SO 3.4mph /  5.5km/h 6.9mph /  11.1km/h 58.8% 0in /  0.0mm
04:14 44.1 °F /  6.7 °C 30.6 °F /  -0.8 °C 30.3in /  1026.5hPa Sur 3.6mph /  5.8km/h 7mph /  11.3km/h 59% 0in /  0.0mm
04:19 43.5 °F /  6.4 °C 30.6 °F /  -0.8 °C 30.3in /  1026.5hPa Sur 3.6mph /  5.8km/h 5.4mph /  8.7km/h 60% 0in /  0.0mm
04:24 43.2 °F /  6.2 °C 30.4 °F /  -0.9 °C 30.3in /  1026.3hPa Sur 3.6mph /  5.8km/h 6mph /  9.7km/h 60.8% 0in /  0.0mm
04:29 42.6 °F /  5.9 °C 30.6 °F /  -0.8 °C 30.3in /  1026.3hPa SSE 3.6mph /  5.8km/h 6mph /  9.7km/h 62.1% 0in /  0.0mm
04:34 42.1 °F /  5.6 °C 30.6 °F /  -0.8 °C 30.3in /  1026.4hPa SSE 3.6mph /  5.8km/h 6mph /  9.7km/h 63.4% 0in /  0.0mm
04:39 41.5 °F /  5.3 °C 30.4 °F /  -0.9 °C 30.3in /  1026.4hPa SSE 3.6mph /  5.8km/h 5.2mph /  8.4km/h 64.7% 0in /  0.0mm
04:44 41 °F /  5 °C 30.4 °F /  -0.9 °C 30.3in /  1026.4hPa SSE 3.6mph /  5.8km/h 5.2mph /  8.4km/h 65.8% 0in /  0.0mm
04:49 40.6 °F /  4.8 °C 30.4 °F /  -0.9 °C 30.3in /  1026.4hPa SSE 3.6mph /  5.8km/h 5.8mph /  9.3km/h 66.8% 0in /  0.0mm
04:54 40.6 °F /  4.8 °C 30.6 °F /  -0.8 °C 30.3in /  1026.2hPa SSE 3.6mph /  5.8km/h 6mph /  9.7km/h 67% 0in /  0.0mm
04:59 40.5 °F /  4.7 °C 30.4 °F /  -0.9 °C 30.3in /  1026.2hPa Sur 3.9mph /  6.2km/h 6.9mph /  11.1km/h 67% 0in /  0.0mm
05:04 40.6 °F /  4.8 °C 30.2 °F /  -1 °C 30.3in /  1026.2hPa Sur 4mph /  6.5km/h 7mph /  11.3km/h 66.2% 0in /  0.0mm
05:09 40.6 °F /  4.8 °C 30.2 °F /  -1 °C 30.3in /  1026.0hPa SSE 4.5mph /  7.2km/h 7mph /  11.3km/h 66% 0in /  0.0mm
05:14 40.6 °F /  4.8 °C 30.2 °F /  -1 °C 30.3in /  1026.0hPa Sur 4.7mph /  7.6km/h 7mph /  11.3km/h 66% 0in /  0.0mm
05:19 40.6 °F /  4.8 °C 30.2 °F /  -1 °C 30.3in /  1026.0hPa Sur 4.5mph /  7.2km/h 6.2mph /  10km/h 65.9% 0in /  0.0mm
05:24 40.8 °F /  4.9 °C 30 °F /  -1.1 °C 30.3in /  1026.0hPa SSO 4.3mph /  6.9km/h 6.9mph /  11.1km/h 65% 0in /  0.0mm
05:29 41.4 °F /  5.2 °C 30 °F /  -1.1 °C 30.3in /  1026.0hPa SSO 4.5mph /  7.3km/h 7mph /  11.3km/h 64% 0in /  0.0mm
05:34 41.4 °F /  5.2 °C 30 °F /  -1.1 °C 30.3in /  1026.0hPa SSO 4.7mph /  7.6km/h 7mph /  11.3km/h 64% 0in /  0.0mm
05:39 41.4 °F /  5.2 °C 30 °F /  -1.1 °C 30.3in /  1026.0hPa Sur 3.7mph /  5.9km/h 5.2mph /  8.4km/h 64% 0in /  0.0mm
05:44 41.4 °F /  5.2 °C 30 °F /  -1.1 °C 30.3in /  1026.0hPa SSE 3.1mph /  5km/h 5mph /  8km/h 64% 0in /  0.0mm
05:49 41.4 °F /  5.2 °C 30 °F /  -1.1 °C 30.3in /  1026.0hPa SSE 3.4mph /  5.5km/h 6.4mph /  10.3km/h 64% 0in /  0.0mm
05:54 41.2 °F /  5.1 °C 29.8 °F /  -1.2 °C 30.3in /  1026.0hPa SSE 3.6mph /  5.8km/h 7mph /  11.3km/h 64.1% 0in /  0.0mm
05:59 40.6 °F /  4.8 °C 29.8 °F /  -1.2 °C 30.3in /  1026.0hPa Sur 4.1mph /  6.6km/h 6mph /  9.7km/h 65% 0in /  0.0mm
06:04 40.5 °F /  4.7 °C 29.7 °F /  -1.3 °C 30.3in /  1026.0hPa SSE 4.3mph /  6.9km/h 6.9mph /  11.1km/h 65% 0in /  0.0mm
06:09 40.1 °F /  4.5 °C 29.7 °F /  -1.3 °C 30.3in /  1026.0hPa SSE 4.3mph /  6.9km/h 7.4mph /  11.9km/h 65.8% 0in /  0.0mm
06:14 39.7 °F /  4.3 °C 29.3 °F /  -1.5 °C 30.3in /  1026.0hPa SSE 4.3mph /  6.9km/h 7mph /  11.3km/h 66% 0in /  0.0mm
06:19 39.6 °F /  4.2 °C 29.5 °F /  -1.4 °C 30.3in /  1026.0hPa SSE 4.3mph /  6.9km/h 6mph /  9.7km/h 67% 0in /  0.0mm
06:24 39.6 °F /  4.2 °C 29.5 °F /  -1.4 °C 30.3in /  1025.9hPa Sur 4.3mph /  6.9km/h 6mph /  9.7km/h 67% 0in /  0.0mm
06:29 39.6 °F /  4.2 °C 29.5 °F /  -1.4 °C 30.3in /  1025.9hPa Sur 3.9mph /  6.2km/h 6mph /  9.7km/h 67% 0in /  0.0mm
06:34 39.6 °F /  4.2 °C 29.5 °F /  -1.4 °C 30.3in /  1026.0hPa SSO 3.6mph /  5.8km/h 6.9mph /  11.1km/h 67% 0in /  0.0mm
06:39 39.7 °F /  4.3 °C 29.7 °F /  -1.3 °C 30.3in /  1026.0hPa Sur 3.9mph /  6.2km/h 7mph /  11.3km/h 67% 0in /  0.0mm
06:44 39.7 °F /  4.3 °C 29.8 °F /  -1.2 °C 30.3in /  1026.0hPa SSE 4mph /  6.5km/h 5.9mph /  9.5km/h 67% 0in /  0.0mm
06:49 39.9 °F /  4.4 °C 29.7 °F /  -1.3 °C 30.3in /  1026.2hPa Sur 4mph /  6.5km/h 6.9mph /  11.1km/h 66.6% 0in /  0.0mm
06:54 39.9 °F /  4.4 °C 29.5 °F /  -1.4 °C 30.3in /  1026.2hPa Sur 4mph /  6.5km/h 7mph /  11.3km/h 66% 0in /  0.0mm
06:59 39.9 °F /  4.4 °C 29.5 °F /  -1.4 °C 30.3in /  1026.2hPa Sur 4.5mph /  7.2km/h 6.4mph /  10.3km/h 66% 0in /  0.0mm
07:04 39.9 °F /  4.4 °C 29.5 °F /  -1.4 °C 30.3in /  1026.2hPa Sur 4.7mph /  7.6km/h 7mph /  11.3km/h 66% 0in /  0.0mm
07:09 39.9 °F /  4.4 °C 29.3 °F /  -1.5 °C 30.3in /  1026.2hPa Sur 4.7mph /  7.6km/h 7mph /  11.3km/h 65.5% 0in /  0.0mm
07:14 40.1 °F /  4.5 °C 29.3 °F /  -1.5 °C 30.3in /  1026.2hPa Sur 4.7mph /  7.6km/h 6mph /  9.7km/h 65% 0in /  0.0mm
07:19 39.9 °F /  4.4 °C 29.1 °F /  -1.6 °C 30.3in /  1026.2hPa Sur 4.5mph /  7.2km/h 6.4mph /  10.3km/h 65% 0in /  0.0mm
07:24 39.9 °F /  4.4 °C 28.8 °F /  -1.8 °C 30.3in /  1026.2hPa Sur 4.3mph /  6.9km/h 7mph /  11.3km/h 64.2% 0in /  0.0mm
07:29 39.9 °F /  4.4 °C 28.6 °F /  -1.9 °C 30.3in /  1026.2hPa Sur 4.5mph /  7.3km/h 7.4mph /  11.9km/h 63.5% 0in /  0.0mm
07:34 40.5 °F /  4.7 °C 28.6 °F /  -1.9 °C 30.3in /  1026.3hPa SSO 4.7mph /  7.6km/h 8.1mph /  13km/h 62.3% 0in /  0.0mm
07:39 40.6 °F /  4.8 °C 28.2 °F /  -2.1 °C 30.3in /  1026.3hPa SSO 5.2mph /  8.3km/h 8.1mph /  13km/h 60.8% 0in /  0.0mm
07:44 41.2 °F /  5.1 °C 28.2 °F /  -2.1 °C 30.3in /  1026.3hPa SSO 5.4mph /  8.7km/h 7.4mph /  11.9km/h 60% 0in /  0.0mm
07:49 41.2 °F /  5.1 °C 28 °F /  -2.2 °C 30.3in /  1026.4hPa SSO 5mph /  8km/h 7mph /  11.3km/h 59.4% 0in /  0.0mm
07:54 41.5 °F /  5.3 °C 28 °F /  -2.2 °C 30.3in /  1026.4hPa SSO 4.7mph /  7.6km/h 7.6mph /  12.2km/h 58.7% 0in /  0.0mm
07:59 41.5 °F /  5.3 °C 27.9 °F /  -2.3 °C 30.3in /  1026.4hPa SSO 5mph /  8.1km/h 8.1mph /  13km/h 58% 0in /  0.0mm
08:04 41.5 °F /  5.3 °C 27.9 °F /  -2.3 °C 30.3in /  1026.5hPa Sur 5.2mph /  8.4km/h 8mph /  12.9km/h 58% 0in /  0.0mm
08:09 41.5 °F /  5.3 °C 27.9 °F /  -2.3 °C 30.3in /  1026.5hPa Sur 4.7mph /  7.5km/h 6mph /  9.7km/h 58% 0in /  0.0mm
08:14 41.5 °F /  5.3 °C 28.2 °F /  -2.1 °C 30.3in /  1026.5hPa Sur 4.3mph /  6.9km/h 6mph /  9.7km/h 58.8% 0in /  0.0mm
08:19 41.4 °F /  5.2 °C 28 °F /  -2.2 °C 30.3in /  1026.5hPa Sur 4.3mph /  6.9km/h 6.9mph /  11.1km/h 59% 0in /  0.0mm
08:24 41.2 °F /  5.1 °C 28 °F /  -2.2 °C 30.3in /  1026.5hPa Sur 4.3mph /  6.9km/h 7mph /  11.3km/h 59% 0in /  0.0mm
08:29 41.4 °F /  5.2 °C 28 °F /  -2.2 °C 30.3in /  1026.5hPa Sur 4.5mph /  7.3km/h 7mph /  11.3km/h 59% 0in /  0.0mm
08:34 41.4 °F /  5.2 °C 28.2 °F /  -2.1 °C 30.3in /  1026.6hPa Sur 4.7mph /  7.6km/h 7mph /  11.3km/h 59% 0in /  0.0mm
08:39 41.5 °F /  5.3 °C 28.2 °F /  -2.1 °C 30.3in /  1026.6hPa Sur 4.5mph /  7.2km/h 7mph /  11.3km/h 59% 0in /  0.0mm
08:44 41.5 °F /  5.3 °C 28.2 °F /  -2.1 °C 30.3in /  1026.6hPa SSO 4.3mph /  6.9km/h 7mph /  11.3km/h 59% 0in /  0.0mm
08:49 41.5 °F /  5.3 °C 28.2 °F /  -2.1 °C 30.3in /  1026.7hPa SSO 4.5mph /  7.3km/h 7mph /  11.3km/h 59% 0in /  0.0mm
08:54 41.7 °F /  5.4 °C 28.2 °F /  -2.1 °C 30.3in /  1026.7hPa SSO 4.7mph /  7.6km/h 7mph /  11.3km/h 58.7% 0in /  0.0mm
08:59 42.1 °F /  5.6 °C 28.4 °F /  -2 °C 30.3in /  1026.7hPa SSO 4.4mph /  7.1km/h 7mph /  11.3km/h 57.9% 0in /  0.0mm
09:04 42.4 °F /  5.8 °C 28.6 °F /  -1.9 °C 30.3in /  1026.9hPa Sur 4.3mph /  6.9km/h 5.8mph /  9.3km/h 57.8% 0in /  0.0mm
09:09 42.6 °F /  5.9 °C 28.8 °F /  -1.8 °C 30.3in /  1026.9hPa SSO 3.9mph /  6.2km/h 6mph /  9.7km/h 58% 0in /  0.0mm
09:14 42.6 °F /  5.9 °C 28.9 °F /  -1.7 °C 30.3in /  1026.9hPa Sur 3.6mph /  5.8km/h 5.8mph /  9.3km/h 58% 0in /  0.0mm
09:19 43 °F /  6.1 °C 29.1 °F /  -1.6 °C 30.3in /  1027.0hPa SSE 3.6mph /  5.8km/h 6mph /  9.7km/h 58.1% 0in /  0.0mm
09:24 42.8 °F /  6 °C 29.5 °F /  -1.4 °C 30.3in /  1027.0hPa Sur 3.6mph /  5.8km/h 6mph /  9.7km/h 59% 0in /  0.0mm
09:29 42.6 °F /  5.9 °C 29.3 °F /  -1.5 °C 30.3in /  1027.0hPa Sur 3.6mph /  5.8km/h 6mph /  9.7km/h 59% 0in /  0.0mm
09:34 42.6 °F /  5.9 °C 29.1 °F /  -1.6 °C 30.3in /  1027.2hPa Sur 3.6mph /  5.8km/h 6.9mph /  11.1km/h 58.6% 0in /  0.0mm
09:39 42.8 °F /  6 °C 28.9 °F /  -1.7 °C 30.3in /  1027.2hPa Sur 4mph /  6.5km/h 7.4mph /  11.9km/h 58% 0in /  0.0mm
09:44 43 °F /  6.1 °C 29.1 °F /  -1.6 °C 30.3in /  1027.2hPa Sur 4.3mph /  6.9km/h 8.1mph /  13km/h 58% 0in /  0.0mm
09:49 43 °F /  6.1 °C 29.3 °F /  -1.5 °C 30.3in /  1027.5hPa Sur 4.9mph /  7.9km/h 8.1mph /  13km/h 58.2% 0in /  0.0mm
09:54 43.2 °F /  6.2 °C 29.3 °F /  -1.5 °C 30.3in /  1027.5hPa SSE 5.2mph /  8.4km/h 9.2mph /  14.8km/h 57.9% 0in /  0.0mm
09:59 43.3 °F /  6.3 °C 29.1 °F /  -1.6 °C 30.3in /  1027.5hPa Sur 5.2mph /  8.4km/h 9mph /  14.5km/h 57% 0in /  0.0mm
10:04 43.5 °F /  6.4 °C 29.3 °F /  -1.5 °C 30.3in /  1027.6hPa Sur 5.2mph /  8.4km/h 7mph /  11.3km/h 57% 0in /  0.0mm
10:09 43.9 °F /  6.6 °C 29.7 °F /  -1.3 °C 30.3in /  1027.6hPa SSE 4.6mph /  7.4km/h 8.1mph /  13km/h 57% 0in /  0.0mm
10:14 44.1 °F /  6.7 °C 29.8 °F /  -1.2 °C 30.3in /  1027.6hPa Sur 4.3mph /  6.9km/h 8.1mph /  13km/h 57% 0in /  0.0mm
10:19 44.2 °F /  6.8 °C 30 °F /  -1.1 °C 30.3in /  1027.6hPa Sur 4.9mph /  7.9km/h 8mph /  12.9km/h 57% 0in /  0.0mm
10:24 44.8 °F /  7.1 °C 30.2 °F /  -1 °C 30.3in /  1027.6hPa Sur 5.2mph /  8.4km/h 6.2mph /  10km/h 56.4% 0in /  0.0mm
10:29 45.3 °F /  7.4 °C 30.4 °F /  -0.9 °C 30.3in /  1027.6hPa SSE 4.6mph /  7.4km/h 6.9mph /  11.1km/h 55.6% 0in /  0.0mm
10:34 45.9 °F /  7.7 °C 30 °F /  -1.1 °C 30.3in /  1027.6hPa Sur 4.3mph /  6.9km/h 8.5mph /  13.7km/h 53.9% 0in /  0.0mm
10:39 46 °F /  7.8 °C 29.3 °F /  -1.5 °C 30.3in /  1027.6hPa Sur 5mph /  8.1km/h 9mph /  14.5km/h 52% 0in /  0.0mm
10:44 46.4 °F /  8 °C 29.3 °F /  -1.5 °C 30.3in /  1027.6hPa Sur 5.4mph /  8.7km/h 9mph /  14.5km/h 51.2% 0in /  0.0mm
10:49 46.9 °F /  8.3 °C 28.9 °F /  -1.7 °C 30.3in /  1027.6hPa SSO 5mph /  8km/h 8mph /  12.9km/h 49.5% 0in /  0.0mm
10:54 47.1 °F /  8.4 °C 28.6 °F /  -1.9 °C 30.3in /  1027.5hPa SSO 4.7mph /  7.6km/h 8.1mph /  13km/h 48.3% 0in /  0.0mm
10:59 47.1 °F /  8.4 °C 28.8 °F /  -1.8 °C 30.3in /  1027.5hPa Sur 5mph /  8.1km/h 7mph /  11.3km/h 48.6% 0in /  0.0mm
11:04 47.7 °F /  8.7 °C 28.8 °F /  -1.8 °C 30.3in /  1027.5hPa SO 5.2mph /  8.4km/h 6.2mph /  10km/h 47.9% 0in /  0.0mm
11:09 47.8 °F /  8.8 °C 28.6 °F /  -1.9 °C 30.3in /  1027.5hPa SO 4.4mph /  7.1km/h 6mph /  9.7km/h 47% 0in /  0.0mm
11:14 48.2 °F /  9 °C 28.6 °F /  -1.9 °C 30.3in /  1027.5hPa SO 4mph /  6.5km/h 8.1mph /  13km/h 46.5% 0in /  0.0mm
11:19 48.6 °F /  9.2 °C 28.8 °F /  -1.8 °C 30.3in /  1027.5hPa SSO 4mph /  6.5km/h 8.1mph /  13km/h 46.1% 0in /  0.0mm
11:24 48.9 °F /  9.4 °C 29.1 °F /  -1.6 °C 30.3in /  1027.5hPa SO 4mph /  6.5km/h 8mph /  12.9km/h 45.9% 0in /  0.0mm
11:29 49.5 °F /  9.7 °C 29.3 °F /  -1.5 °C 30.3in /  1027.5hPa SO 3.5mph /  5.6km/h 6.2mph /  10km/h 45.5% 0in /  0.0mm
11:34 50 °F /  10 °C 29.3 °F /  -1.5 °C 30.3in /  1027.5hPa SO 3.1mph /  5km/h 6mph /  9.7km/h 44.8% 0in /  0.0mm
11:39 50.4 °F /  10.2 °C 29.3 °F /  -1.5 °C 30.3in /  1027.4hPa OSO 3mph /  4.8km/h 5.8mph /  9.3km/h 44% 0in /  0.0mm
11:44 50.9 °F /  10.5 °C 29.5 °F /  -1.4 °C 30.3in /  1027.4hPa SO 2.9mph /  4.7km/h 7.4mph /  11.9km/h 43.6% 0in /  0.0mm
11:49 51.4 °F /  10.8 °C 29.5 °F /  -1.4 °C 30.3in /  1027.4hPa OSO 3.4mph /  5.4km/h 7mph /  11.3km/h 42.6% 0in /  0.0mm
11:54 52 °F /  11.1 °C 29.5 °F /  -1.4 °C 30.3in /  1027.3hPa Oeste 3.6mph /  5.8km/h 6mph /  9.7km/h 42% 0in /  0.0mm
11:59 52.3 °F /  11.3 °C 29.3 °F /  -1.5 °C 30.3in /  1027.3hPa Oeste 2.7mph /  4.4km/h 5mph /  8km/h 41.1% 0in /  0.0mm
12:04 52.9 °F /  11.6 °C 29.3 °F /  -1.5 °C 30.3in /  1027.3hPa SSO 2.4mph /  3.9km/h 5.8mph /  9.3km/h 40.4% 0in /  0.0mm
12:09 53.2 °F /  11.8 °C 29.5 °F /  -1.4 °C 30.3in /  1027.2hPa SSE 2.7mph /  4.4km/h 6mph /  9.7km/h 40% 0in /  0.0mm
12:14 54 °F /  12.2 °C 29.5 °F /  -1.4 °C 30.3in /  1027.2hPa Sur 2.9mph /  4.6km/h 6mph /  9.7km/h 39.2% 0in /  0.0mm
12:19 54.3 °F /  12.4 °C 29.8 °F /  -1.2 °C 30.3in /  1027.2hPa SO 2.5mph /  4.1km/h 5.2mph /  8.4km/h 38.9% 0in /  0.0mm
12:24 54.9 °F /  12.7 °C 29.7 °F /  -1.3 °C 30.3in /  1027.1hPa SSE 2.4mph /  3.9km/h 5.8mph /  9.3km/h 38% 0in /  0.0mm
12:29 55.2 °F /  12.9 °C 29.7 °F /  -1.3 °C 30.3in /  1027.1hPa SSE 3.2mph /  5.1km/h 6.2mph /  10km/h 37.3% 0in /  0.0mm
12:34 55.6 °F /  13.1 °C 29.7 °F /  -1.3 °C 30.3in /  1027.1hPa Sur 3.6mph /  5.8km/h 6.9mph /  11.1km/h 37% 0in /  0.0mm
12:39 55.8 °F /  13.2 °C 29.5 °F /  -1.4 °C 30.3in /  1026.9hPa Sur 3.9mph /  6.2km/h 8.1mph /  13km/h 36.5% 0in /  0.0mm
12:44 55.8 °F /  13.2 °C 29.1 °F /  -1.6 °C 30.3in /  1026.9hPa Sur 4mph /  6.5km/h 8mph /  12.9km/h 36% 0in /  0.0mm
12:49 55.9 °F /  13.3 °C 29.3 °F /  -1.5 °C 30.3in /  1026.9hPa Sur 4.4mph /  7.1km/h 9.2mph /  14.8km/h 36% 0in /  0.0mm
12:54 56.1 °F /  13.4 °C 29.5 °F /  -1.4 °C 30.3in /  1026.4hPa Sur 4.7mph /  7.6km/h 9mph /  14.5km/h 36% 0in /  0.0mm
12:59 56.1 °F /  13.4 °C 28.9 °F /  -1.7 °C 30.3in /  1026.4hPa SSE 5mph /  8.1km/h 9mph /  14.5km/h 35.4% 0in /  0.0mm
13:04 56.1 °F /  13.4 °C 28.8 °F /  -1.8 °C 30.3in /  1026.4hPa SSE 5.2mph /  8.4km/h 7.4mph /  11.9km/h 35% 0in /  0.0mm
13:09 56.3 °F /  13.5 °C 28.4 °F /  -2 °C 30.3in /  1026.2hPa SSO 4.9mph /  7.9km/h 7mph /  11.3km/h 34.3% 0in /  0.0mm
13:14 56.5 °F /  13.6 °C 28.4 °F /  -2 °C 30.3in /  1026.2hPa Sur 4.7mph /  7.6km/h 7mph /  11.3km/h 34% 0in /  0.0mm
13:19 56.8 °F /  13.8 °C 28.8 °F /  -1.8 °C 30.3in /  1026.2hPa Sur 3.5mph /  5.7km/h 5.2mph /  8.4km/h 34.1% 0in /  0.0mm
13:24 57.2 °F /  14 °C 28.6 °F /  -1.9 °C 30.3in /  1026.0hPa SSE 2.9mph /  4.6km/h 5.2mph /  8.4km/h 33.3% 0in /  0.0mm
13:29 57.6 °F /  14.2 °C 28.6 °F /  -1.9 °C 30.3in /  1026.0hPa SSE 3mph /  4.9km/h 5.2mph /  8.4km/h 33% 0in /  0.0mm
13:34 57.7 °F /  14.3 °C 28 °F /  -2.2 °C 30.3in /  1026.0hPa SE 3.1mph /  5km/h 5.2mph /  8.4km/h 32.1% 0in /  0.0mm
13:39 58.1 °F /  14.5 °C 28.8 °F /  -1.8 °C 30.3in /  1025.8hPa SE 2.4mph /  3.8km/h 5mph /  8km/h 32.5% 0in /  0.0mm
13:44 58.5 °F /  14.7 °C 28.6 °F /  -1.9 °C 30.3in /  1025.8hPa SSE 2mph /  3.2km/h 5mph /  8km/h 31.8% 0in /  0.0mm
13:49 58.8 °F /  14.9 °C 28.6 °F /  -1.9 °C 30.3in /  1025.8hPa SE 2mph /  3.2km/h 5mph /  8km/h 31.4% 0in /  0.0mm
13:54 59.2 °F /  15.1 °C 28.4 °F /  -2 °C 30.3in /  1025.6hPa SSE 2mph /  3.2km/h 5mph /  8km/h 31% 0in /  0.0mm
13:59 59.5 °F /  15.3 °C 28.9 °F /  -1.7 °C 30.3in /  1025.6hPa SSE 0.6mph /  1km/h 3.1mph /  5km/h 31% 0in /  0.0mm
14:04 60.1 °F /  15.6 °C 28.9 °F /  -1.7 °C 30.3in /  1025.6hPa Calm   5.4mph /  8.7km/h 30.5% 0in /  0.0mm
14:09 59.9 °F /  15.5 °C 28.8 °F /  -1.8 °C 30.3in /  1025.5hPa NE 1.5mph /  2.4km/h 6mph /  9.7km/h 30.3% 0in /  0.0mm
14:14 59.7 °F /  15.4 °C 29.1 °F /  -1.6 °C 30.3in /  1025.5hPa NE 2.4mph /  3.9km/h 5mph /  8km/h 31% 0in /  0.0mm
14:19 60.1 °F /  15.6 °C 28.9 °F /  -1.7 °C 30.3in /  1025.5hPa NE 2.4mph /  3.9km/h 5.9mph /  9.5km/h 30.6% 0in /  0.0mm
14:24 60.3 °F /  15.7 °C 29.7 °F /  -1.3 °C 30.3in /  1025.4hPa ENE 2.4mph /  3.9km/h 6.2mph /  10km/h 31.4% 0in /  0.0mm
14:29 60.4 °F /  15.8 °C 29.8 °F /  -1.2 °C 30.3in /  1025.4hPa NE 2.7mph /  4.4km/h 6mph /  9.7km/h 31.3% 0in /  0.0mm
14:34 60.4 °F /  15.8 °C 30 °F /  -1.1 °C 30.3in /  1025.4hPa North 2.9mph /  4.6km/h 6mph /  9.7km/h 31.5% 0in /  0.0mm
14:39 60.4 °F /  15.8 °C 30.4 °F /  -0.9 °C 30.3in /  1025.3hPa NE 3mph /  4.9km/h 7.4mph /  11.9km/h 31.9% 0in /  0.0mm
14:44 60.6 °F /  15.9 °C 30.2 °F /  -1 °C 30.3in /  1025.3hPa ENE 3.1mph /  5km/h 7mph /  11.3km/h 31.5% 0in /  0.0mm
14:49 60.6 °F /  15.9 °C 30.6 °F /  -0.8 °C 30.3in /  1025.3hPa NNE 3.7mph /  5.9km/h 8.1mph /  13km/h 32% 0in /  0.0mm
14:54 61 °F /  16.1 °C 30.7 °F /  -0.7 °C 30.3in /  1025.3hPa NNE 4mph /  6.5km/h 8.1mph /  13km/h 32% 0in /  0.0mm
14:59 61 °F /  16.1 °C 30.7 °F /  -0.7 °C 30.3in /  1025.3hPa NE 4.5mph /  7.3km/h 8mph /  12.9km/h 31.8% 0in /  0.0mm
15:04 61.2 °F /  16.2 °C 30.7 °F /  -0.7 °C 30.3in /  1025.3hPa NNE 4.7mph /  7.6km/h 10.4mph /  16.7km/h 31.7% 0in /  0.0mm
15:09 61.2 °F /  16.2 °C 30.4 °F /  -0.9 °C 30.3in /  1025.3hPa NNE 5.2mph /  8.3km/h 10mph /  16.1km/h 31% 0in /  0.0mm
15:14 61 °F /  16.1 °C 30.4 °F /  -0.9 °C 30.3in /  1025.3hPa NNE 5.4mph /  8.7km/h 9.2mph /  14.8km/h 31.3% 0in /  0.0mm
15:19 61 °F /  16.1 °C 30.6 °F /  -0.8 °C 30.3in /  1025.4hPa NNE 5.3mph /  8.5km/h 9mph /  14.5km/h 31.6% 0in /  0.0mm
15:24 61 °F /  16.1 °C 30.6 °F /  -0.8 °C 30.3in /  1025.4hPa NNE 5.2mph /  8.4km/h 8.7mph /  14km/h 31.7% 0in /  0.0mm
15:29 60.8 °F /  16 °C 31.1 °F /  -0.5 °C 30.3in /  1025.4hPa NE 5.2mph /  8.4km/h 9mph /  14.5km/h 32.5% 0in /  0.0mm
15:34 61 °F /  16.1 °C 31.5 °F /  -0.3 °C 30.3in /  1025.4hPa NE 5.2mph /  8.4km/h 9mph /  14.5km/h 32.9% 0in /  0.0mm
15:39 61 °F /  16.1 °C 31.1 °F /  -0.5 °C 30.3in /  1025.4hPa NE 4.7mph /  7.5km/h 9.2mph /  14.8km/h 32.2% 0in /  0.0mm
15:44 61 °F /  16.1 °C 31.3 °F /  -0.4 °C 30.3in /  1025.4hPa NNE 4.3mph /  6.9km/h 9.2mph /  14.8km/h 32.4% 0in /  0.0mm
15:49 61 °F /  16.1 °C 31.3 °F /  -0.4 °C 30.3in /  1025.4hPa NE 4.9mph /  7.9km/h 8.1mph /  13km/h 32.5% 0in /  0.0mm
15:54 61.2 °F /  16.2 °C 31.3 °F /  -0.4 °C 30.3in /  1025.4hPa NE 5.2mph /  8.4km/h 11.8mph /  19km/h 32.4% 0in /  0.0mm
15:59 61.2 °F /  16.2 °C 30.9 °F /  -0.6 °C 30.3in /  1025.4hPa NE 5.7mph /  9.1km/h 12mph /  19.3km/h 32% 0in /  0.0mm
16:04 61.2 °F /  16.2 °C 30 °F /  -1.1 °C 30.3in /  1025.4hPa NE 5.9mph /  9.5km/h 11.2mph /  18km/h 30.7% 0in /  0.0mm
16:09 61.2 °F /  16.2 °C 30.7 °F /  -0.7 °C 30.3in /  1025.3hPa NE 6.2mph /  10km/h 11mph /  17.7km/h 31.6% 0in /  0.0mm
16:14 61.3 °F /  16.3 °C 31.8 °F /  -0.1 °C 30.3in /  1025.3hPa NE 6.4mph /  10.3km/h 12.7mph /  20.4km/h 32.7% 0in /  0.0mm
16:19 61.2 °F /  16.2 °C 32.2 °F /  0.1 °C 30.3in /  1025.4hPa NNE 6.3mph /  10.1km/h 13mph /  20.9km/h 33.6% 0in /  0.0mm
16:24 61 °F /  16.1 °C 33.1 °F /  0.6 °C 30.3in /  1025.4hPa NE 6.2mph /  10km/h 12mph /  19.3km/h 34.8% 0in /  0.0mm
16:29 61 °F /  16.1 °C 33.8 °F /  1 °C 30.3in /  1025.4hPa NE 6.2mph /  10km/h 11.2mph /  18km/h 36.1% 0in /  0.0mm
16:34 60.8 °F /  16 °C 35.1 °F /  1.7 °C 30.3in /  1025.5hPa NE 6.2mph /  10km/h 13mph /  20.9km/h 38.3% 0in /  0.0mm
16:39 60.6 °F /  15.9 °C 36.3 °F /  2.4 °C 30.3in /  1025.5hPa NE 7mph /  11.2km/h 13mph /  20.9km/h 40.4% 0in /  0.0mm
16:44 60.3 °F /  15.7 °C 37.9 °F /  3.3 °C 30.3in /  1025.5hPa NE 7.4mph /  11.9km/h 13.7mph /  22km/h 43.4% 0in /  0.0mm
16:49 60.1 °F /  15.6 °C 38.3 °F /  3.5 °C 30.3in /  1025.6hPa NE 7.1mph /  11.4km/h 14mph /  22.5km/h 44.5% 0in /  0.0mm
16:54 59.5 °F /  15.3 °C 39.2 °F /  4 °C 30.3in /  1025.6hPa NE 6.9mph /  11.1km/h 12.3mph /  19.8km/h 46.8% 0in /  0.0mm
16:59 59.2 °F /  15.1 °C 40.5 °F /  4.7 °C 30.3in /  1025.6hPa NE 6.9mph /  11.1km/h 12.7mph /  20.4km/h 49.8% 0in /  0.0mm
17:04 58.8 °F /  14.9 °C 41.5 °F /  5.3 °C 30.3in /  1025.8hPa NE 6.9mph /  11.1km/h 13mph /  20.9km/h 52.5% 0in /  0.0mm
17:09 58.6 °F /  14.8 °C 42.3 °F /  5.7 °C 30.3in /  1025.8hPa NE 6.5mph /  10.4km/h 11.8mph /  19km/h 54.7% 0in /  0.0mm
17:14 58.5 °F /  14.7 °C 43.3 °F /  6.3 °C 30.3in /  1025.8hPa NE 6.2mph /  10km/h 12mph /  19.3km/h 57.2% 0in /  0.0mm
17:19 58.3 °F /  14.6 °C 44.4 °F /  6.9 °C 30.3in /  1026.0hPa NE 6mph /  9.7km/h 10mph /  16.1km/h 59.9% 0in /  0.0mm
17:24 57.9 °F /  14.4 °C 45.1 °F /  7.3 °C 30.3in /  1026.0hPa NE 5.9mph /  9.5km/h 10mph /  16.1km/h 62.3% 0in /  0.0mm
17:29 57.7 °F /  14.3 °C 45.9 °F /  7.7 °C 30.3in /  1026.0hPa NE 5.9mph /  9.5km/h 10mph /  16.1km/h 64.5% 0in /  0.0mm
17:34 57.6 °F /  14.2 °C 46.2 °F /  7.9 °C 30.3in /  1026.1hPa ENE 5.9mph /  9.5km/h 9mph /  14.5km/h 65.8% 0in /  0.0mm
17:39 57.4 °F /  14.1 °C 46.6 °F /  8.1 °C 30.3in /  1026.1hPa ENE 4.7mph /  7.6km/h 8mph /  12.9km/h 66.9% 0in /  0.0mm
17:44 57 °F /  13.9 °C 46.8 °F /  8.2 °C 30.3in /  1026.1hPa ENE 4mph /  6.5km/h 6mph /  9.7km/h 68.3% 0in /  0.0mm
17:49 56.8 °F /  13.8 °C 46.9 °F /  8.3 °C 30.3in /  1026.3hPa ENE 3.7mph /  6km/h 6.2mph /  10km/h 69.5% 0in /  0.0mm
17:54 56.7 °F /  13.7 °C 47.1 °F /  8.4 °C 30.3in /  1026.3hPa NE 3.6mph /  5.8km/h 6.2mph /  10km/h 70.5% 0in /  0.0mm
17:59 56.5 °F /  13.6 °C 47.3 °F /  8.5 °C 30.3in /  1026.3hPa NE 3.6mph /  5.8km/h 6mph /  9.7km/h 71.3% 0in /  0.0mm
18:04 56.1 °F /  13.4 °C 47.3 °F /  8.5 °C 30.3in /  1026.4hPa ENE 3.6mph /  5.8km/h 5.2mph /  8.4km/h 72% 0in /  0.0mm
18:09 55.9 °F /  13.3 °C 47.3 °F /  8.5 °C 30.3in /  1026.4hPa ENE 3.3mph /  5.3km/h 5mph /  8km/h 72.6% 0in /  0.0mm
18:14 55.9 °F /  13.3 °C 47.3 °F /  8.5 °C 30.3in /  1026.4hPa ENE 3.1mph /  5km/h 5mph /  8km/h 73% 0in /  0.0mm
18:19 55.8 °F /  13.2 °C 47.5 °F /  8.6 °C 30.3in /  1026.4hPa ENE 3mph /  4.8km/h 5mph /  8km/h 73.9% 0in /  0.0mm
18:24 55.6 °F /  13.1 °C 47.5 °F /  8.6 °C 30.3in /  1026.4hPa ENE 2.9mph /  4.7km/h 5.2mph /  8.4km/h 74% 0in /  0.0mm
18:29 55.2 °F /  12.9 °C 47.3 °F /  8.5 °C 30.3in /  1026.4hPa ENE 2.5mph /  4.1km/h 5mph /  8km/h 74.7% 0in /  0.0mm
18:34 55.2 °F /  12.9 °C 47.3 °F /  8.5 °C 30.3in /  1026.5hPa ENE 2.4mph /  3.9km/h 5mph /  8km/h 75% 0in /  0.0mm
18:39 55 °F /  12.8 °C 47.3 °F /  8.5 °C 30.3in /  1026.5hPa ENE 2.4mph /  3.9km/h 5mph /  8km/h 75.3% 0in /  0.0mm
18:44 54.9 °F /  12.7 °C 47.5 °F /  8.6 °C 30.3in /  1026.5hPa ENE 2.4mph /  3.9km/h 3.6mph /  5.8km/h 76% 0in /  0.0mm
18:49 54.9 °F /  12.7 °C 47.5 °F /  8.6 °C 30.3in /  1026.6hPa ENE 2.1mph /  3.4km/h 4.6mph /  7.4km/h 76% 0in /  0.0mm
18:54 54.7 °F /  12.6 °C 47.3 °F /  8.5 °C 30.3in /  1026.6hPa ENE 2mph /  3.2km/h 5mph /  8km/h 76% 0in /  0.0mm
18:59 54.3 °F /  12.4 °C 47.3 °F /  8.5 °C 30.3in /  1026.6hPa ENE 2mph /  3.2km/h 3.6mph /  5.8km/h 76.8% 0in /  0.0mm
19:04 54.1 °F /  12.3 °C 47.3 °F /  8.5 °C 30.3in /  1026.9hPa ENE 2mph /  3.2km/h 4mph /  6.4km/h 77.6% 0in /  0.0mm
19:09 54 °F /  12.2 °C 47.3 °F /  8.5 °C 30.3in /  1026.9hPa ENE 1.9mph /  3km/h 2.3mph /  3.7km/h 78% 0in /  0.0mm
19:14 53.8 °F /  12.1 °C 47.3 °F /  8.5 °C 30.3in /  1026.9hPa ENE 1.8mph /  2.9km/h 4.6mph /  7.4km/h 78.8% 0in /  0.0mm
19:19 53.4 °F /  11.9 °C 47.1 °F /  8.4 °C 30.3in /  1026.9hPa ENE 1.8mph /  2.9km/h 5mph /  8km/h 79% 0in /  0.0mm
19:24 53.2 °F /  11.8 °C 46.9 °F /  8.3 °C 30.3in /  1026.9hPa ENE 1.8mph /  2.9km/h 4mph /  6.4km/h 79.3% 0in /  0.0mm
19:29 53.1 °F /  11.7 °C 47.1 °F /  8.4 °C 30.3in /  1026.9hPa ENE 1.9mph /  3.1km/h 3mph /  4.8km/h 80% 0in /  0.0mm
19:34 53.1 °F /  11.7 °C 47.5 °F /  8.6 °C 30.3in /  1027.1hPa ENE 2mph /  3.2km/h 3mph /  4.8km/h 81% 0in /  0.0mm
19:39 53.1 °F /  11.7 °C 47.5 °F /  8.6 °C 30.3in /  1027.1hPa ENE 1.9mph /  3km/h 2.3mph /  3.7km/h 81% 0in /  0.0mm
19:44 53.1 °F /  11.7 °C 47.3 °F /  8.5 °C 30.3in /  1027.1hPa ENE 1.8mph /  2.9km/h 2mph /  3.2km/h 81% 0in /  0.0mm
19:49 52.9 °F /  11.6 °C 47.1 °F /  8.4 °C 30.3in /  1027.2hPa ENE 0.7mph /  1.1km/h   81% 0in /  0.0mm
19:54 52.9 °F /  11.6 °C 47.1 °F /  8.4 °C 30.3in /  1027.2hPa Calm     81% 0in /  0.0mm
19:59 52.7 °F /  11.5 °C 46.9 °F /  8.3 °C 30.3in /  1027.2hPa Calm     81% 0in /  0.0mm
20:04 52.5 °F /  11.4 °C 46.9 °F /  8.3 °C 30.3in /  1027.3hPa Calm   2.9mph /  4.7km/h 81% 0in /  0.0mm
20:09 52.3 °F /  11.3 °C 46.8 °F /  8.2 °C 30.3in /  1027.3hPa ENE 0.9mph /  1.4km/h 3.6mph /  5.8km/h 81% 0in /  0.0mm
20:14 52.2 °F /  11.2 °C 46.8 °F /  8.2 °C 30.3in /  1027.3hPa ENE 1.4mph /  2.2km/h 4.6mph /  7.4km/h 81.5% 0in /  0.0mm
20:19 52.2 °F /  11.2 °C 46.8 °F /  8.2 °C 30.3in /  1027.4hPa ENE 2mph /  3.2km/h 5mph /  8km/h 82% 0in /  0.0mm
20:24 52.2 °F /  11.2 °C 46.8 °F /  8.2 °C 30.3in /  1027.4hPa ENE 2.4mph /  3.9km/h 5mph /  8km/h 82% 0in /  0.0mm
20:29 52.2 °F /  11.2 °C 46.8 °F /  8.2 °C 30.3in /  1027.4hPa ENE 2.1mph /  3.4km/h 3mph /  4.8km/h 82% 0in /  0.0mm
20:34 52 °F /  11.1 °C 46.6 °F /  8.1 °C 30.3in /  1027.5hPa ENE 2mph /  3.2km/h 2mph /  3.2km/h 81.6% 0in /  0.0mm
20:39 51.6 °F /  10.9 °C 46 °F /  7.8 °C 30.3in /  1027.5hPa ENE 0.7mph /  1.2km/h 4.6mph /  7.4km/h 81% 0in /  0.0mm
20:44 51.4 °F /  10.8 °C 45.9 °F /  7.7 °C 30.3in /  1027.5hPa Calm   5mph /  8km/h 81.4% 0in /  0.0mm
20:49 51.3 °F /  10.7 °C 46 °F /  7.8 °C 30.3in /  1027.6hPa ENE 1.2mph /  2km/h 5mph /  8km/h 82% 0in /  0.0mm
20:54 51.1 °F /  10.6 °C 46 °F /  7.8 °C 30.3in /  1027.6hPa ENE 2mph /  3.2km/h 2mph /  3.2km/h 82.7% 0in /  0.0mm
20:59 51.1 °F /  10.6 °C 46 °F /  7.8 °C 30.3in /  1027.6hPa ENE 0.7mph /  1.1km/h   83% 0in /  0.0mm
21:04 51.1 °F /  10.6 °C 46.2 °F /  7.9 °C 30.4in /  1027.7hPa Calm     83.3% 0in /  0.0mm
21:09 51.1 °F /  10.6 °C 46 °F /  7.8 °C 30.4in /  1027.7hPa Calm   3.5mph /  5.6km/h 83% 0in /  0.0mm
21:14 50.7 °F /  10.4 °C 45.3 °F /  7.4 °C 30.4in /  1027.7hPa Calm   3mph /  4.8km/h 82% 0in /  0.0mm
21:19 50.4 °F /  10.2 °C 45.1 °F /  7.3 °C 30.4in /  1027.8hPa SE 0.9mph /  1.4km/h 4.6mph /  7.4km/h 82% 0in /  0.0mm
21:24 50.2 °F /  10.1 °C 45.1 °F /  7.3 °C 30.4in /  1027.8hPa SSE 1.4mph /  2.2km/h 5mph /  8km/h 82.7% 0in /  0.0mm
21:29 50 °F /  10 °C 45 °F /  7.2 °C 30.4in /  1027.8hPa SSE 1.4mph /  2.2km/h 2.9mph /  4.7km/h 82.8% 0in /  0.0mm
21:34 49.6 °F /  9.8 °C 44.2 °F /  6.8 °C 30.4in /  1028.1hPa SSE 1.4mph /  2.2km/h 5.2mph /  8.4km/h 81.5% 0in /  0.0mm
21:39 49.5 °F /  9.7 °C 43.5 °F /  6.4 °C 30.4in /  1028.1hPa Sur 2.1mph /  3.3km/h 5mph /  8km/h 80.2% 0in /  0.0mm
21:44 49.1 °F /  9.5 °C 43.2 °F /  6.2 °C 30.4in /  1028.1hPa Sur 2.4mph /  3.9km/h 6.9mph /  11.1km/h 79.8% 0in /  0.0mm
21:49 48.9 °F /  9.4 °C 42.6 °F /  5.9 °C 30.4in /  1028.2hPa Sur 3.4mph /  5.5km/h 7mph /  11.3km/h 79% 0in /  0.0mm
21:54 48.9 °F /  9.4 °C 42.8 °F /  6 °C 30.4in /  1028.2hPa SSO 4mph /  6.5km/h 6.2mph /  10km/h 79.7% 0in /  0.0mm
21:59 48.9 °F /  9.4 °C 43 °F /  6.1 °C 30.4in /  1028.2hPa Sur 4mph /  6.5km/h 6.9mph /  11.1km/h 80% 0in /  0.0mm
22:04 48.9 °F /  9.4 °C 43 °F /  6.1 °C 30.4in /  1028.2hPa Sur 4mph /  6.5km/h 7mph /  11.3km/h 80% 0in /  0.0mm
22:09 48.9 °F /  9.4 °C 43.2 °F /  6.2 °C 30.4in /  1028.2hPa SO 4.2mph /  6.8km/h 7mph /  11.3km/h 80.2% 0in /  0.0mm
22:14 48.9 °F /  9.4 °C 43.3 °F /  6.3 °C 30.4in /  1028.2hPa SO 4.3mph /  6.9km/h 6mph /  9.7km/h 81% 0in /  0.0mm
22:19 48.9 °F /  9.4 °C 43.3 °F /  6.3 °C 30.4in /  1028.3hPa SO 3.5mph /  5.7km/h 6mph /  9.7km/h 81% 0in /  0.0mm
22:24 48.9 °F /  9.4 °C 43.3 °F /  6.3 °C 30.4in /  1028.3hPa SO 3.1mph /  5km/h 5mph /  8km/h 81.3% 0in /  0.0mm
22:29 48.9 °F /  9.4 °C 43.5 °F /  6.4 °C 30.4in /  1028.3hPa SO 2.3mph /  3.7km/h 5mph /  8km/h 81.5% 0in /  0.0mm
22:34 48.9 °F /  9.4 °C 43.7 °F /  6.5 °C 30.4in /  1028.3hPa SO 1.8mph /  2.9km/h 4.6mph /  7.4km/h 82% 0in /  0.0mm
22:39 48.7 °F /  9.3 °C 43.3 °F /  6.3 °C 30.4in /  1028.3hPa SSO 2.2mph /  3.5km/h 5mph /  8km/h 81.4% 0in /  0.0mm
22:44 48.7 °F /  9.3 °C 43.2 °F /  6.2 °C 30.4in /  1028.3hPa SSO 2.4mph /  3.9km/h 6.2mph /  10km/h 81% 0in /  0.0mm
22:49 48.6 °F /  9.2 °C 43 °F /  6.1 °C 30.4in /  1028.3hPa SSO 3.1mph /  5km/h 6mph /  9.7km/h 81% 0in /  0.0mm
22:54 48.4 °F /  9.1 °C 43 °F /  6.1 °C 30.4in /  1028.3hPa SSO 3.6mph /  5.8km/h 6mph /  9.7km/h 81.6% 0in /  0.0mm
22:59 48.4 °F /  9.1 °C 43.2 °F /  6.2 °C 30.4in /  1028.3hPa SO 3.2mph /  5.1km/h 5mph /  8km/h 82% 0in /  0.0mm
23:04 48.4 °F /  9.1 °C 43.2 °F /  6.2 °C 30.4in /  1028.3hPa SSO 2.9mph /  4.6km/h 5mph /  8km/h 82% 0in /  0.0mm
23:09 48.4 °F /  9.1 °C 43.2 °F /  6.2 °C 30.4in /  1028.3hPa SSO 2.9mph /  4.7km/h 6.2mph /  10km/h 82% 0in /  0.0mm
23:14 48.4 °F /  9.1 °C 43.2 °F /  6.2 °C 30.4in /  1028.3hPa SSO 2.9mph /  4.6km/h 7.4mph /  11.9km/h 82% 0in /  0.0mm
23:19 48.4 °F /  9.1 °C 43.2 °F /  6.2 °C 30.4in /  1028.4hPa SO 3.6mph /  5.8km/h 7mph /  11.3km/h 82% 0in /  0.0mm
23:24 48.6 °F /  9.2 °C 43.2 °F /  6.2 °C 30.4in /  1028.4hPa SO 4mph /  6.5km/h 6.2mph /  10km/h 82% 0in /  0.0mm
23:29 48.6 °F /  9.2 °C 43.3 °F /  6.3 °C 30.4in /  1028.4hPa SO 4mph /  6.5km/h 6.9mph /  11.1km/h 82% 0in /  0.0mm
23:34 48.6 °F /  9.2 °C 43.3 °F /  6.3 °C 30.4in /  1028.4hPa SO 4mph /  6.5km/h 7mph /  11.3km/h 82% 0in /  0.0mm
23:39 48.6 °F /  9.2 °C 43.3 °F /  6.3 °C 30.4in /  1028.3hPa SO 4mph /  6.5km/h 6mph /  9.7km/h 82% 0in /  0.0mm
23:44 48.6 °F /  9.2 °C 43.3 °F /  6.3 °C 30.4in /  1028.3hPa SO 4mph /  6.5km/h 5.9mph /  9.5km/h 82% 0in /  0.0mm
23:49 48.6 °F /  9.2 °C 43.3 °F /  6.3 °C 30.4in /  1028.4hPa SSO 3.4mph /  5.5km/h 6mph /  9.7km/h 82% 0in /  0.0mm
23:54 48.6 °F /  9.2 °C 43 °F /  6.1 °C 30.4in /  1028.4hPa SSO 3.1mph /  5km/h 6mph /  9.7km/h 81.2% 0in /  0.0mm
23:59 48.6 °F /  9.2 °C 43 °F /  6.1 °C 30.4in /  1028.4hPa SSO 3.1mph /  5km/h 5mph /  8km/h 81% 0in /  0.0mm
Murcia-Puente Tocinos, España
Compliments of Weather Underground - 3 mb

La estación de MeteoMurcia.com, publica sus datos en los siguientes proyectos:

Weather Underground PWS IMURCIAP2 Meteoclimatic www.awekas.at

W3Counter
Web Analytics